Time;durP1;ratioP1;P1;durP2;ratioP2;P2;SDS_P1;SDS_P2;PMS_P1;PMS_P2;Temp;Humidity;BMP_temperature;BMP_pressure;BME280_temperature;BME280_humidity;BME280_pressure;Samples;Min_cycle;Max_cycle;Signal;HPM_P1;HPM_P2
2022/02/27 00:01:21;;;;;;;18.33;6.80;;;;;;;0.36;100.00;97693.97;4969581;28;20061;-50
2022/02/27 00:03:49;;;;;;;15.73;7.13;;;;;;;0.32;100.00;97705.34;4971800;28;20066;-49
2022/02/27 00:06:18;;;;;;;10.90;7.05;;;;;;;0.30;100.00;97702.78;4971221;28;20470;-51
2022/02/27 00:08:52;;;;;;;11.98;6.97;;;;;;;0.26;100.00;97701.19;4972773;28;20081;-57
2022/02/27 00:11:20;;;;;;;11.93;7.18;;;;;;;0.23;100.00;97707.31;4974276;28;20082;-51
2022/02/27 00:13:48;;;;;;;11.43;7.15;;;;;;;0.23;100.00;97701.28;4970472;28;20549;-52
2022/02/27 00:16:17;;;;;;;11.82;7.05;;;;;;;0.17;100.00;97704.97;4974549;28;20089;-49
2022/02/27 00:18:47;;;;;;;13.18;7.00;;;;;;;0.17;100.00;97712.75;4958003;28;20089;-51
2022/02/27 00:21:15;;;;;;;8.63;6.60;;;;;;;0.16;100.00;97705.00;4955388;28;20442;-49
2022/02/27 00:23:44;;;;;;;12.90;6.90;;;;;;;0.14;100.00;97710.25;4950470;28;20062;-51
2022/02/27 00:26:15;;;;;;;8.70;7.10;;;;;;;0.12;100.00;97701.66;4957826;28;20081;-48
2022/02/27 00:28:43;;;;;;;13.23;6.82;;;;;;;0.09;100.00;97706.09;4953786;28;20066;-55
2022/02/27 00:31:12;;;;;;;15.07;7.55;;;;;;;0.05;100.00;97705.34;4961750;28;20071;-51
2022/02/27 00:33:40;;;;;;;13.52;6.90;;;;;;;0.03;100.00;97707.13;4953093;28;20066;-50
2022/02/27 00:36:11;;;;;;;10.90;6.78;;;;;;;-0.05;100.00;97715.16;4952628;28;20094;-51
2022/02/27 00:38:39;;;;;;;10.38;6.28;;;;;;;-0.08;100.00;97710.06;4954826;28;20075;-50
2022/02/27 00:41:07;;;;;;;10.65;6.78;;;;;;;-0.10;100.00;97711.03;4954547;28;20069;-49
2022/02/27 00:43:36;;;;;;;9.98;6.65;;;;;;;-0.25;100.00;97718.34;4971887;28;20426;-55
2022/02/27 00:46:06;;;;;;;15.43;7.10;;;;;;;-0.29;100.00;97710.75;4960356;28;20121;-54
2022/02/27 00:48:35;;;;;;;11.40;7.45;;;;;;;-0.30;100.00;97706.47;4959627;28;20066;-52
2022/02/27 00:51:03;;;;;;;11.18;6.78;;;;;;;-0.31;100.00;97703.03;4966780;28;20070;-50
2022/02/27 00:53:33;;;;;;;10.23;6.95;;;;;;;-0.34;100.00;97705.72;4973686;28;20078;-48
2022/02/27 00:56:02;;;;;;;13.95;7.25;;;;;;;-0.40;100.00;97698.09;4973887;28;20082;-48
2022/02/27 00:58:30;;;;;;;12.00;7.28;;;;;;;-0.42;100.00;97699.88;4951878;28;20450;-52
2022/02/27 01:00:59;;;;;;;12.93;7.53;;;;;;;-0.42;100.00;97705.06;4949546;28;20063;-47
2022/02/27 01:03:28;;;;;;;11.95;7.80;;;;;;;-0.43;100.00;97708.56;4951630;28;20552;-51
2022/02/27 01:05:56;;;;;;;14.75;7.25;;;;;;;-0.42;100.00;97712.84;4953384;28;20075;-49
2022/02/27 01:08:27;;;;;;;15.73;8.15;;;;;;;-0.42;100.00;97705.06;4961746;28;20055;-48
2022/02/27 01:10:57;;;;;;;15.65;8.65;;;;;;;-0.43;100.00;97700.78;4962687;28;20071;-52
2022/02/27 01:13:26;;;;;;;16.00;9.00;;;;;;;-0.40;100.00;97705.03;4958387;28;20489;-51
2022/02/27 01:15:54;;;;;;;17.95;9.70;;;;;;;-0.35;100.00;97705.72;4952928;28;20077;-53
2022/02/27 01:18:23;;;;;;;15.38;8.82;;;;;;;-0.34;100.00;97702.28;4960552;28;20081;-52
2022/02/27 01:20:51;;;;;;;18.73;9.07;;;;;;;-0.33;100.00;97699.63;4973766;28;20478;-50
2022/02/27 01:23:19;;;;;;;17.05;9.13;;;;;;;-0.27;100.00;97693.41;4975874;28;20169;-48
2022/02/27 01:25:48;;;;;;;11.23;8.40;;;;;;;-0.26;100.00;97692.50;4975529;28;20100;-50
2022/02/27 01:28:18;;;;;;;17.08;9.13;;;;;;;-0.26;100.00;97693.34;4974639;28;20445;-50
2022/02/27 01:30:46;;;;;;;12.98;8.90;;;;;;;-0.22;100.00;97701.03;4961504;28;20071;-47
2022/02/27 01:33:15;;;;;;;13.85;8.57;;;;;;;-0.21;100.00;97695.78;4952672;28;20066;-50
2022/02/27 01:35:44;;;;;;;16.33;8.50;;;;;;;-0.14;100.00;97699.88;4956767;28;20089;-50
2022/02/27 01:38:12;;;;;;;17.02;9.90;;;;;;;-0.07;100.00;97697.94;4978908;28;20516;-50
2022/02/27 01:40:40;;;;;;;18.13;9.82;;;;;;;0.04;100.00;97690.69;4974733;28;20512;-47
2022/02/27 01:43:09;;;;;;;23.08;10.23;;;;;;;0.16;100.00;97681.66;4958920;28;20070;-53
2022/02/27 01:45:40;;;;;;;15.65;10.07;;;;;;;0.19;100.00;97682.38;4955694;28;20079;-53
2022/02/27 01:48:08;;;;;;;19.58;11.10;;;;;;;0.25;100.00;97689.13;4956628;28;20456;-51
2022/02/27 01:50:37;;;;;;;15.10;10.07;;;;;;;0.41;100.00;97681.66;4963449;28;20070;-57
2022/02/27 01:53:05;;;;;;;18.90;10.85;;;;;;;0.51;100.00;97684.78;4958422;28;20069;-50
2022/02/27 01:55:34;;;;;;;18.45;9.70;;;;;;;0.54;100.00;97682.09;4967258;28;20106;-53
2022/02/27 01:58:02;;;;;;;14.18;10.00;;;;;;;0.52;100.00;97678.69;4956692;28;20096;-48
2022/02/27 02:00:31;;;;;;;20.00;10.63;;;;;;;0.45;100.00;97670.31;4965778;28;20528;-50
2022/02/27 02:03:01;;;;;;;18.30;10.07;;;;;;;0.37;100.00;97667.94;4971456;28;20082;-49
2022/02/27 02:05:29;;;;;;;17.42;10.35;;;;;;;0.37;100.00;97667.94;4975021;28;20079;-52
2022/02/27 02:08:07;;;;;;;18.05;10.50;;;;;;;0.35;100.00;97674.09;4977910;28;20051;-51
2022/02/27 02:10:37;;;;;;;16.08;10.55;;;;;;;0.30;100.00;97678.59;4954811;28;20054;-52
2022/02/27 02:13:05;;;;;;;13.95;9.48;;;;;;;0.17;100.00;97671.25;4955322;28;20071;-50
2022/02/27 02:15:34;;;;;;;15.43;10.32;;;;;;;0.23;100.00;97668.41;4959601;28;20070;-50
2022/02/27 02:18:07;;;;;;;15.05;11.13;;;;;;;0.16;100.00;97674.72;4960628;28;20070;-48
2022/02/27 02:20:37;;;;;;;20.73;10.77;;;;;;;0.08;100.00;97679.31;4974308;28;20078;-47
2022/02/27 02:23:05;;;;;;;22.10;10.38;;;;;;;0.05;100.00;97666.44;4978243;28;20085;-50
2022/02/27 02:25:34;;;;;;;16.73;10.50;;;;;;;0.14;100.00;97668.75;4973356;28;20077;-47
2022/02/27 02:28:02;;;;;;;17.88;9.70;;;;;;;0.15;100.00;97665.25;4962708;28;20077;-51
2022/02/27 02:30:31;;;;;;;23.40;11.60;;;;;;;0.22;100.00;97666.72;4950390;28;20457;-54
2022/02/27 02:33:00;;;;;;;20.00;10.55;;;;;;;0.23;100.00;97658.03;4954499;28;20070;-53
2022/02/27 02:35:29;;;;;;;19.58;10.68;;;;;;;0.15;100.00;97662.66;4954749;28;20422;-48
2022/02/27 02:37:59;;;;;;;17.50;10.60;;;;;;;0.07;100.00;97659.47;4953162;28;20035;-47
2022/02/27 02:40:28;;;;;;;13.85;10.38;;;;;;;0.12;100.00;97657.56;4969376;28;20149;-50
2022/02/27 02:42:56;;;;;;;24.73;10.73;;;;;;;0.19;100.00;97660.78;4977619;28;20066;-49
2022/02/27 02:45:25;;;;;;;18.67;11.13;;;;;;;0.14;100.00;97660.13;4962766;28;20083;-49
2022/02/27 02:47:55;;;;;;;17.30;10.90;;;;;;;0.14;100.00;97657.53;4954663;28;20529;-53
2022/02/27 02:50:24;;;;;;;21.60;11.18;;;;;;;0.13;100.00;97664.44;4953898;28;20059;-50
2022/02/27 02:52:52;;;;;;;19.25;11.32;;;;;;;0.05;100.00;97655.22;4974068;28;20512;-49
2022/02/27 02:55:22;;;;;;;17.33;11.10;;;;;;;0.10;100.00;97654.16;4974651;28;20066;-49
2022/02/27 02:57:51;;;;;;;20.88;11.85;;;;;;;0.03;100.00;97641.44;4958429;28;20063;-51
2022/02/27 03:00:19;;;;;;;17.15;11.18;;;;;;;0.06;100.00;97651.72;4967494;28;20065;-51
2022/02/27 03:02:47;;;;;;;16.45;11.07;;;;;;;0.03;100.00;97644.88;4972574;28;20477;-47
2022/02/27 03:05:16;;;;;;;19.77;10.95;;;;;;;0.00;100.00;97642.41;4975537;28;20073;-54
2022/02/27 03:07:44;;;;;;;23.08;11.63;;;;;;;-0.07;100.00;97636.59;4975241;28;20474;-54
2022/02/27 03:10:13;;;;;;;19.58;11.27;;;;;;;-0.10;100.00;97635.84;4974907;28;20085;-52
2022/02/27 03:12:43;;;;;;;19.52;11.20;;;;;;;-0.13;100.00;97633.34;4964889;28;20071;-52
2022/02/27 03:15:12;;;;;;;21.92;10.82;;;;;;;-0.21;100.00;97630.97;4962861;28;20398;-48
2022/02/27 03:17:40;;;;;;;18.40;11.05;;;;;;;-0.20;100.00;97639.63;4954222;28;22777;-49
2022/02/27 03:20:10;;;;;;;22.65;11.18;;;;;;;-0.29;100.00;97644.19;4954911;28;20086;-48
2022/02/27 03:22:38;;;;;;;19.90;10.95;;;;;;;-0.21;100.00;97643.09;4953928;28;20063;-50
2022/02/27 03:25:08;;;;;;;22.60;11.98;;;;;;;-0.25;100.00;97635.41;4965751;28;20088;-50
2022/02/27 03:27:36;;;;;;;21.83;11.07;;;;;;;-0.33;100.00;97644.34;4961779;28;20085;-51
2022/02/27 03:30:08;;;;;;;20.17;10.95;;;;;;;-0.38;100.00;97651.41;4959026;28;20073;-49
2022/02/27 03:32:36;;;;;;;22.50;11.73;;;;;;;-0.36;100.00;97647.88;4962314;28;20090;-52
2022/02/27 03:35:05;;;;;;;19.45;11.98;;;;;;;-0.30;100.00;97646.84;4980499;28;20082;-55
2022/02/27 03:37:34;;;;;;;20.52;11.45;;;;;;;-0.39;100.00;97647.97;4953263;28;20078;-53
2022/02/27 03:40:03;;;;;;;21.73;10.52;;;;;;;-0.34;100.00;97659.06;4950017;28;20059;-51
2022/02/27 03:42:32;;;;;;;22.05;11.52;;;;;;;-0.39;100.00;97658.34;4954292;28;20467;-52
2022/02/27 03:45:00;;;;;;;20.13;10.90;;;;;;;-0.35;100.00;97644.38;4960815;28;20065;-51
2022/02/27 03:47:30;;;;;;;19.02;10.95;;;;;;;-0.33;100.00;97657.31;4973204;28;20089;-53
2022/02/27 03:49:58;;;;;;;18.70;12.15;;;;;;;-0.33;100.00;97645.19;4977793;28;20622;-50
2022/02/27 03:52:27;;;;;;;17.17;10.50;;;;;;;-0.41;100.00;97649.78;4971413;28;20101;-50
2022/02/27 03:54:59;;;;;;;21.65;12.52;;;;;;;-0.40;100.00;97656.66;4976186;28;20529;-56
2022/02/27 03:57:27;;;;;;;20.70;11.23;;;;;;;-0.35;100.00;97659.94;4974865;28;20070;-50
2022/02/27 03:59:56;;;;;;;16.67;11.35;;;;;;;-0.32;100.00;97656.41;4966333;28;20137;-52
2022/02/27 04:02:24;;;;;;;20.27;12.25;;;;;;;-0.34;100.00;97656.47;4957372;28;20083;-51
2022/02/27 04:04:54;;;;;;;21.50;11.82;;;;;;;-0.28;100.00;97652.81;4955028;28;20090;-53
2022/02/27 04:07:23;;;;;;;24.38;11.40;;;;;;;-0.30;100.00;97647.69;4964073;28;20082;-47
2022/02/27 04:09:51;;;;;;;20.50;11.85;;;;;;;-0.31;100.00;97639.94;4958449;28;20482;-50
2022/02/27 04:12:22;;;;;;;20.17;11.13;;;;;;;-0.26;100.00;97638.06;4960502;28;20084;-47
2022/02/27 04:14:50;;;;;;;20.55;12.48;;;;;;;-0.32;100.00;97633.91;4967528;28;20059;-50
2022/02/27 04:17:19;;;;;;;19.25;11.70;;;;;;;-0.32;100.00;97635.66;4959841;28;20078;-47
2022/02/27 04:19:47;;;;;;;18.73;11.25;;;;;;;-0.38;100.00;97634.13;4950988;28;21579;-49
2022/02/27 04:22:17;;;;;;;19.65;11.15;;;;;;;-0.38;100.00;97628.97;4970312;28;20078;-51
2022/02/27 04:24:46;;;;;;;24.52;12.52;;;;;;;-0.47;100.00;97646.53;4961117;28;20074;-50
2022/02/27 04:27:14;;;;;;;23.02;12.35;;;;;;;-0.44;100.00;97655.06;4951940;28;20552;-51
2022/02/27 04:29:44;;;;;;;20.00;11.55;;;;;;;-0.37;100.00;97641.00;4951497;28;20900;-47
2022/02/27 04:32:13;;;;;;;20.27;11.73;;;;;;;-0.38;100.00;97639.31;4956249;28;20082;-55
2022/02/27 04:34:41;;;;;;;17.63;11.95;;;;;;;-0.40;100.00;97635.91;4954414;28;20564;-55
2022/02/27 04:37:10;;;;;;;21.50;11.40;;;;;;;-0.39;100.00;97639.34;4969287;28;20070;-51
2022/02/27 04:39:40;;;;;;;20.25;10.57;;;;;;;-0.39;100.00;97645.38;4968593;28;20082;-54
2022/02/27 04:42:08;;;;;;;21.20;11.38;;;;;;;-0.42;100.00;97640.28;4969082;28;20071;-54
2022/02/27 04:44:37;;;;;;;17.35;11.85;;;;;;;-0.44;100.00;97644.69;4956383;28;20078;-49
2022/02/27 04:47:05;;;;;;;21.65;12.07;;;;;;;-0.43;100.00;97646.38;4973697;28;20090;-51
2022/02/27 04:49:34;;;;;;;17.63;11.25;;;;;;;-0.34;100.00;97643.50;4975499;28;20078;-51
2022/02/27 04:52:02;;;;;;;17.25;11.05;;;;;;;-0.50;100.00;97642.28;4979628;28;20563;-53
2022/02/27 04:54:31;;;;;;;17.35;10.90;;;;;;;-0.52;100.00;97638.88;4974576;28;20074;-50
2022/02/27 04:57:01;;;;;;;18.50;11.80;;;;;;;-0.49;100.00;97637.03;4979253;28;20069;-52
2022/02/27 04:59:29;;;;;;;19.30;11.43;;;;;;;-0.54;100.00;97641.53;4976904;28;20074;-53
2022/02/27 05:01:57;;;;;;;15.93;11.30;;;;;;;-0.60;100.00;97643.47;4957921;28;20787;-50
2022/02/27 05:04:26;;;;;;;17.10;11.60;;;;;;;-0.58;100.00;97646.88;4975009;28;20227;-54
2022/02/27 05:06:54;;;;;;;21.38;11.93;;;;;;;-0.66;100.00;97641.06;4976482;28;20074;-51
2022/02/27 05:09:23;;;;;;;17.08;11.27;;;;;;;-0.63;100.00;97646.13;4973556;28;20702;-51
2022/02/27 05:11:51;;;;;;;15.85;10.98;;;;;;;-0.64;100.00;97647.03;4974733;28;20073;-53
2022/02/27 05:14:21;;;;;;;18.65;11.32;;;;;;;-0.67;100.00;97647.13;4974799;28;20094;-51
2022/02/27 05:16:49;;;;;;;25.45;11.73;;;;;;;-0.72;100.00;97642.94;4966836;28;20118;-55
2022/02/27 05:19:18;;;;;;;14.32;10.90;;;;;;;-0.67;100.00;97644.53;4955137;28;20463;-50
2022/02/27 05:21:46;;;;;;;20.02;11.52;;;;;;;-0.72;100.00;97653.31;4956182;28;20557;-53
2022/02/27 05:24:15;;;;;;;18.00;12.25;;;;;;;-0.81;100.00;97653.56;4955260;28;20093;-47
2022/02/27 05:26:44;;;;;;;23.50;11.65;;;;;;;-0.75;100.00;97658.56;4954035;28;20089;-52
2022/02/27 05:29:12;;;;;;;16.05;11.63;;;;;;;-0.82;100.00;97659.66;4956246;28;20570;-54
2022/02/27 05:31:42;;;;;;;14.75;11.50;;;;;;;-0.78;100.00;97658.66;4955445;28;20059;-51
2022/02/27 05:34:11;;;;;;;16.95;11.30;;;;;;;-0.82;100.00;97659.66;4956675;28;20086;-50
2022/02/27 05:36:39;;;;;;;22.42;12.60;;;;;;;-0.81;100.00;97663.94;4958363;28;20071;-51
2022/02/27 05:39:08;;;;;;;19.63;13.18;;;;;;;-0.69;100.00;97661.88;4958526;28;20071;-50
2022/02/27 05:41:37;;;;;;;16.95;11.88;;;;;;;-0.81;100.00;97656.16;4958042;28;20086;-54
2022/02/27 05:44:05;;;;;;;18.58;12.25;;;;;;;-0.74;100.00;97662.84;4961577;28;20090;-52
2022/02/27 05:46:34;;;;;;;18.88;12.13;;;;;;;-0.78;100.00;97657.81;4960454;28;20046;-56
2022/02/27 05:49:04;;;;;;;19.05;11.95;;;;;;;-0.79;100.00;97653.50;4965443;28;20481;-55
2022/02/27 05:51:32;;;;;;;19.75;12.30;;;;;;;-0.78;100.00;97663.00;4972125;28;20059;-52
2022/02/27 05:54:01;;;;;;;22.52;12.18;;;;;;;-0.83;100.00;97670.88;4967547;28;20073;-54
2022/02/27 05:56:29;;;;;;;19.10;11.88;;;;;;;-0.81;100.00;97681.22;4958582;28;20079;-49
2022/02/27 05:58:58;;;;;;;17.20;11.77;;;;;;;-0.67;100.00;97671.28;4960640;28;20078;-51
2022/02/27 06:01:26;;;;;;;23.73;11.65;;;;;;;-0.75;100.00;97675.88;4953057;28;20074;-52
2022/02/27 06:03:55;;;;;;;20.23;12.43;;;;;;;-0.74;100.00;97669.78;4965722;28;20078;-48
2022/02/27 06:06:25;;;;;;;15.15;11.60;;;;;;;-0.75;100.00;97676.72;4968054;28;20070;-53
2022/02/27 06:08:56;;;;;;;15.82;12.20;;;;;;;-0.70;100.00;97680.91;4954954;28;20067;-51
2022/02/27 06:11:24;;;;;;;16.73;11.88;;;;;;;-0.67;100.00;97686.00;4955333;28;20082;-50
2022/02/27 06:13:53;;;;;;;18.95;11.60;;;;;;;-0.65;100.00;97686.81;4956315;28;20086;-54
2022/02/27 06:16:21;;;;;;;19.48;11.57;;;;;;;-0.64;100.00;97686.75;4969770;28;20075;-56
2022/02/27 06:18:50;;;;;;;17.60;11.38;;;;;;;-0.64;100.00;97691.94;4965199;28;20063;-51
2022/02/27 06:21:18;;;;;;;15.57;11.20;;;;;;;-0.65;100.00;97692.00;4954766;28;20077;-49
2022/02/27 06:23:48;;;;;;;19.45;13.25;;;;;;;-0.61;100.00;97696.19;4960721;28;20077;-50
2022/02/27 06:26:17;;;;;;;14.30;11.07;;;;;;;-0.58;100.00;97694.34;4981266;28;20089;-50
2022/02/27 06:28:45;;;;;;;17.58;11.13;;;;;;;-0.53;100.00;97694.19;4953332;28;20097;-50
2022/02/27 06:31:14;;;;;;;23.38;11.40;;;;;;;-0.45;100.00;97705.16;4970957;28;20096;-52
2022/02/27 06:33:44;;;;;;;18.00;10.52;;;;;;;-0.50;100.00;97702.72;4978608;28;20066;-53
2022/02/27 06:36:12;;;;;;;14.50;11.18;;;;;;;-0.32;100.00;97700.47;4971640;28;20078;-52
2022/02/27 06:38:41;;;;;;;14.80;10.52;;;;;;;-0.27;100.00;97704.63;4962752;28;20079;-53
2022/02/27 06:41:12;;;;;;;16.48;11.30;;;;;;;-0.19;100.00;97700.94;4974319;28;20079;-52
2022/02/27 06:43:41;;;;;;;15.43;10.85;;;;;;;-0.11;100.00;97704.97;4978075;28;20082;-49
2022/02/27 06:46:09;;;;;;;14.23;10.07;;;;;;;-0.13;100.00;97708.53;4960462;28;20454;-50
2022/02/27 06:48:38;;;;;;;22.77;11.70;;;;;;;-0.09;100.00;97707.53;4956962;28;20077;-48
2022/02/27 06:51:09;;;;;;;17.48;11.30;;;;;;;0.06;100.00;97711.38;4957034;28;20073;-51
2022/02/27 06:53:40;;;;;;;18.75;12.35;;;;;;;0.13;100.00;97708.53;4963992;28;20079;-58
2022/02/27 06:56:11;;;;;;;14.38;9.45;;;;;;;0.21;100.00;97721.28;4956542;28;20517;-51
2022/02/27 06:58:41;;;;;;;16.05;11.40;;;;;;;0.33;100.00;97713.06;4954662;28;20073;-52
2022/02/27 07:01:12;;;;;;;17.15;11.63;;;;;;;0.38;100.00;97723.28;4971775;28;20081;-55
2022/02/27 07:03:40;;;;;;;19.98;12.27;;;;;;;0.40;100.00;97729.28;4969496;28;20070;-49
2022/02/27 07:06:09;;;;;;;16.98;11.75;;;;;;;0.54;100.00;97719.28;4961596;28;20513;-47
2022/02/27 07:08:38;;;;;;;17.23;11.18;;;;;;;0.71;100.00;97727.34;4956125;28;20608;-47
2022/02/27 07:11:06;;;;;;;18.35;12.23;;;;;;;0.81;100.00;97729.63;4973732;28;20051;-51
2022/02/27 07:13:37;;;;;;;16.27;10.80;;;;;;;0.70;100.00;97728.25;4954415;28;20083;-49
2022/02/27 07:16:05;;;;;;;14.75;10.82;;;;;;;0.78;100.00;97733.16;4953355;28;20639;-49
2022/02/27 07:18:34;;;;;;;19.63;11.95;;;;;;;0.91;100.00;97738.78;4953076;28;20522;-50
2022/02/27 07:21:02;;;;;;;19.25;11.60;;;;;;;0.98;100.00;97739.44;4962931;28;20529;-47
2022/02/27 07:23:31;;;;;;;19.75;10.73;;;;;;;1.18;100.00;97749.97;4956685;28;20062;-54
2022/02/27 07:25:59;;;;;;;18.55;11.85;;;;;;;1.38;100.00;97746.63;4955920;28;20082;-50
2022/02/27 07:28:27;;;;;;;14.75;9.85;;;;;;;1.48;100.00;97747.13;4958940;28;20078;-49
2022/02/27 07:30:57;;;;;;;17.17;10.90;;;;;;;1.50;100.00;97753.13;4950388;28;20085;-54
2022/02/27 07:33:26;;;;;;;15.05;10.73;;;;;;;1.60;100.00;97757.06;4965699;28;20081;-48
2022/02/27 07:35:54;;;;;;;15.88;10.80;;;;;;;1.56;100.00;97758.09;4977390;28;20709;-53
2022/02/27 07:38:23;;;;;;;16.52;10.75;;;;;;;1.46;100.00;97756.75;4975325;28;20113;-50
2022/02/27 07:40:52;;;;;;;14.50;9.75;;;;;;;1.46;100.00;97761.94;4986670;28;20086;-50
2022/02/27 07:43:20;;;;;;;17.30;10.95;;;;;;;1.64;100.00;97762.09;4980189;28;20066;-50
2022/02/27 07:45:49;;;;;;;16.15;9.77;;;;;;;1.74;100.00;97764.34;4972088;28;20066;-50
2022/02/27 07:48:19;;;;;;;16.10;10.75;;;;;;;1.74;100.00;97759.16;4974240;28;20076;-47
2022/02/27 07:50:47;;;;;;;14.20;9.05;;;;;;;1.70;100.00;97763.63;4983450;28;20065;-54
2022/02/27 07:53:16;;;;;;;18.58;11.00;;;;;;;1.85;100.00;97770.00;4983027;28;20079;-48
2022/02/27 07:55:44;;;;;;;17.73;10.48;;;;;;;1.97;100.00;97756.53;4980746;28;20543;-51
2022/02/27 07:58:13;;;;;;;12.85;8.90;;;;;;;1.99;100.00;97761.66;4967957;28;20077;-53
2022/02/27 08:00:42;;;;;;;18.85;10.48;;;;;;;2.39;100.00;97760.94;4960391;28;20070;-52
2022/02/27 08:03:11;;;;;;;16.15;10.18;;;;;;;2.50;100.00;97763.09;4960810;28;20073;-49
2022/02/27 08:05:41;;;;;;;15.67;10.40;;;;;;;2.45;100.00;97765.06;4970301;28;21195;-48
2022/02/27 08:08:10;;;;;;;15.53;10.27;;;;;;;2.62;100.00;97760.00;4984218;28;20086;-49
2022/02/27 08:10:38;;;;;;;14.77;9.98;;;;;;;2.64;100.00;97762.53;4960212;28;20067;-56
2022/02/27 08:13:06;;;;;;;14.80;10.35;;;;;;;2.81;100.00;97765.28;4971478;28;20077;-49
2022/02/27 08:15:35;;;;;;;18.63;10.63;;;;;;;2.75;100.00;97758.56;4985188;28;20061;-47
2022/02/27 08:18:03;;;;;;;17.30;10.60;;;;;;;2.72;100.00;97755.22;4965305;28;20478;-50
2022/02/27 08:20:34;;;;;;;14.90;10.90;;;;;;;2.80;100.00;97755.78;4954510;28;20070;-48
2022/02/27 08:23:04;;;;;;;14.82;9.70;;;;;;;3.03;100.00;97760.84;4959386;28;20074;-52
2022/02/27 08:25:35;;;;;;;14.00;9.75;;;;;;;3.20;100.00;97756.63;4955555;28;20062;-47
2022/02/27 08:28:04;;;;;;;17.27;10.90;;;;;;;3.09;100.00;97763.16;4969806;28;20517;-51
2022/02/27 08:30:32;;;;;;;17.65;10.45;;;;;;;3.48;100.00;97754.53;4979862;28;20489;-48
2022/02/27 08:33:00;;;;;;;16.98;9.23;;;;;;;3.43;100.00;97766.91;4974276;28;20553;-53
2022/02/27 08:35:29;;;;;;;13.43;9.55;;;;;;;3.39;100.00;97764.50;4965646;28;20106;-53
2022/02/27 08:37:57;;;;;;;15.02;10.40;;;;;;;3.64;100.00;97765.09;4978969;28;20100;-50
2022/02/27 08:40:27;;;;;;;15.68;9.05;;;;;;;3.81;100.00;97759.09;4980391;28;20077;-52
2022/02/27 08:42:56;;;;;;;16.13;9.45;;;;;;;3.66;100.00;97765.03;4990456;28;20482;-48
2022/02/27 08:45:25;;;;;;;15.27;10.77;;;;;;;3.78;100.00;97754.88;4969245;28;20066;-48
2022/02/27 08:47:54;;;;;;;14.98;10.02;;;;;;;3.97;100.00;97759.25;4956623;28;20522;-54
2022/02/27 08:50:23;;;;;;;13.52;9.15;;;;;;;4.19;100.00;97752.09;4961284;28;20094;-56
2022/02/27 08:52:52;;;;;;;12.93;10.27;;;;;;;4.26;100.00;97742.19;4960021;28;20090;-50
2022/02/27 08:55:22;;;;;;;14.50;9.15;;;;;;;4.37;100.00;97745.16;4973851;28;20074;-55
2022/02/27 08:57:52;;;;;;;14.55;10.95;;;;;;;4.16;100.00;97756.59;4979414;28;20066;-52
2022/02/27 09:00:20;;;;;;;15.18;8.93;;;;;;;4.40;100.00;97749.34;4973284;28;20066;-51
2022/02/27 09:02:49;;;;;;;12.95;9.65;;;;;;;4.27;100.00;97734.28;4969512;28;20061;-52
2022/02/27 09:05:18;;;;;;;14.43;7.80;;;;;;;4.55;100.00;97735.56;4980842;28;20093;-52
2022/02/27 09:07:46;;;;;;;14.02;9.38;;;;;;;4.61;100.00;97752.69;4974594;28;20474;-55
2022/02/27 09:10:15;;;;;;;15.60;9.05;;;;;;;4.70;100.00;97744.41;4966365;28;20078;-55
2022/02/27 09:12:45;;;;;;;9.82;6.97;;;;;;;4.62;100.00;97731.72;4953717;28;20071;-52
2022/02/27 09:15:16;;;;;;;15.18;10.32;;;;;;;4.47;100.00;97735.06;4959732;28;20058;-51
2022/02/27 09:17:44;;;;;;;11.40;8.82;;;;;;;4.67;100.00;97739.31;4963645;28;20074;-56
2022/02/27 09:20:14;;;;;;;12.27;8.88;;;;;;;4.73;100.00;97746.84;4976455;28;20078;-54
2022/02/27 09:22:42;;;;;;;12.73;9.63;;;;;;;4.79;100.00;97746.56;4956628;28;20085;-48
2022/02/27 09:25:11;;;;;;;13.57;8.75;;;;;;;4.99;100.00;97740.31;4957844;28;20066;-52
2022/02/27 09:27:59;;;;;;;15.48;9.48;;;;;;;4.96;100.00;97732.63;4957076;28;20062;-54
2022/02/27 09:30:29;;;;;;;12.25;9.00;;;;;;;5.07;100.00;97727.69;4959428;28;20568;-51
2022/02/27 09:32:57;;;;;;;9.05;7.78;;;;;;;5.23;100.00;97725.13;4961715;28;20473;-49
2022/02/27 09:35:28;;;;;;;9.02;7.32;;;;;;;5.20;100.00;97728.75;4958087;28;20070;-51
2022/02/27 09:37:57;;;;;;;11.68;7.35;;;;;;;5.00;100.00;97724.53;4987588;28;20093;-53
2022/02/27 09:40:26;;;;;;;9.50;7.88;;;;;;;5.06;100.00;97723.41;4980770;28;20074;-56
2022/02/27 09:42:56;;;;;;;9.75;7.93;;;;;;;5.12;100.00;97719.59;4963774;28;20066;-51
2022/02/27 09:45:25;;;;;;;10.40;7.47;;;;;;;5.46;100.00;97726.50;4957909;28;20071;-48
2022/02/27 09:47:55;;;;;;;9.93;7.70;;;;;;;5.53;100.00;97724.41;4956077;28;20078;-51
2022/02/27 09:50:24;;;;;;;8.75;7.20;;;;;;;5.24;100.00;97725.03;4956844;28;20543;-52
2022/02/27 09:52:53;;;;;;;10.13;6.55;;;;;;;5.17;100.00;97717.59;4960506;28;20086;-55
2022/02/27 09:55:21;;;;;;;7.80;7.00;;;;;;;5.02;100.00;97707.91;4973064;28;20085;-52
2022/02/27 09:57:50;;;;;;;7.55;6.25;;;;;;;4.80;100.00;97719.50;4970500;28;20062;-53
2022/02/27 10:00:20;;;;;;;7.78;5.63;;;;;;;4.77;100.00;97724.88;4972021;28;20078;-50
2022/02/27 10:03:10;;;;;;;10.60;7.40;;;;;;;4.72;100.00;97737.34;4974021;28;20528;-52
2022/02/27 10:05:40;;;;;;;7.57;6.78;;;;;;;4.73;100.00;97731.19;4975580;28;20090;-54
2022/02/27 10:08:09;;;;;;;9.90;7.53;;;;;;;4.83;100.00;97731.56;4985429;28;20540;-50
2022/02/27 10:10:39;;;;;;;7.85;6.90;;;;;;;4.77;100.00;97719.63;4976284;28;20508;-51
2022/02/27 10:13:07;;;;;;;10.33;7.73;;;;;;;4.87;100.00;97723.47;4979157;28;20076;-51
2022/02/27 10:15:36;;;;;;;7.30;6.57;;;;;;;5.09;100.00;97724.97;4970321;28;20092;-49
2022/02/27 10:18:16;;;;;;;14.32;8.77;;;;;;;4.97;100.00;97723.84;4960343;28;20476;-54
2022/02/27 10:20:44;;;;;;;9.63;7.93;;;;;;;5.32;100.00;97713.31;4972595;28;20081;-55
2022/02/27 10:23:13;;;;;;;9.30;7.53;;;;;;;5.31;100.00;97722.94;4973248;28;20524;-58
2022/02/27 10:25:41;;;;;;;11.45;7.50;;;;;;;5.34;100.00;97717.56;4957038;28;20097;-54
2022/02/27 10:28:09;;;;;;;11.50;8.10;;;;;;;5.27;100.00;97712.75;4957536;28;20075;-55
2022/02/27 10:30:39;;;;;;;11.50;8.23;;;;;;;5.38;100.00;97723.47;4953867;28;20063;-51
2022/02/27 10:33:08;;;;;;;10.63;7.63;;;;;;;5.74;100.00;97710.16;4967491;28;20070;-52
2022/02/27 10:35:43;;;;;;;9.45;8.25;;;;;;;5.81;100.00;97710.66;4983601;28;20085;-51
2022/02/27 10:38:13;;;;;;;10.70;8.27;;;;;;;6.23;100.00;97709.25;4967401;28;20541;-50
2022/02/27 10:40:45;;;;;;;10.27;9.18;;;;;;;6.02;100.00;97704.31;4951954;28;20079;-51
2022/02/27 10:43:15;;;;;;;11.95;8.40;;;;;;;6.28;100.00;97701.97;4959942;28;20067;-54
2022/02/27 10:45:44;;;;;;;13.03;8.33;;;;;;;6.27;95.39;97722.09;4957122;28;20066;-52
2022/02/27 10:48:14;;;;;;;8.80;7.88;;;;;;;6.06;86.76;97707.59;4955557;28;20059;-54
2022/02/27 10:50:45;;;;;;;11.03;7.90;;;;;;;6.07;91.02;97710.13;4957793;28;20066;-55
2022/02/27 10:53:15;;;;;;;10.65;8.18;;;;;;;6.21;93.91;97701.47;4957021;28;20498;-51
2022/02/27 10:55:43;;;;;;;12.43;8.23;;;;;;;6.11;96.21;97701.16;4957656;28;20564;-53
2022/02/27 10:58:12;;;;;;;10.52;8.73;;;;;;;6.26;93.86;97695.97;4954370;28;20074;-53
2022/02/27 11:00:40;;;;;;;10.32;8.65;;;;;;;6.32;97.14;97693.00;4961572;28;20082;-57
2022/02/27 11:03:12;;;;;;;9.60;8.25;;;;;;;6.29;100.00;97690.56;4966429;28;20070;-53
2022/02/27 11:05:43;;;;;;;12.13;8.82;;;;;;;5.94;100.00;97689.00;4954971;28;20074;-54
2022/02/27 11:08:13;;;;;;;12.63;9.98;;;;;;;5.94;100.00;97685.53;4952773;28;20093;-50
2022/02/27 11:10:43;;;;;;;11.38;8.77;;;;;;;6.53;98.62;97677.81;4988411;28;20473;-56
2022/02/27 11:13:15;;;;;;;10.82;8.82;;;;;;;6.77;92.38;97680.78;4975319;28;20549;-52
2022/02/27 11:15:43;;;;;;;10.80;9.68;;;;;;;6.75;95.26;97683.50;4985146;28;20079;-50
2022/02/27 11:18:15;;;;;;;12.30;9.00;;;;;;;6.69;92.33;97677.78;4988236;28;20078;-55
2022/02/27 11:20:45;;;;;;;12.52;8.98;;;;;;;6.79;79.04;97677.13;4980041;28;20711;-49
2022/02/27 11:23:13;;;;;;;9.18;7.25;;;;;;;7.11;79.89;97667.31;4984489;28;20086;-54
2022/02/27 11:25:42;;;;;;;10.13;7.32;;;;;;;7.24;67.51;97666.59;4956337;28;20071;-53
2022/02/27 11:28:12;;;;;;;9.18;7.47;;;;;;;6.79;63.31;97671.06;4964129;28;20085;-57